Time;durP1;ratioP1;P1;durP2;ratioP2;P2;SDS_P1;SDS_P2;PMS_P1;PMS_P2;Temp;Humidity;BMP_temperature;BMP_pressure;BME280_temperature;BME280_humidity;BME280_pressure;Samples;Min_cycle;Max_cycle;Signal;HPM_P1;HPM_P2
2021/03/10 00:00:11;;;;;;;12.57;9.07;;;3.60;99.90;;;;;;5004139;28;20219;-55
2021/03/10 00:02:41;;;;;;;14.47;9.43;;;3.50;99.90;;;;;;5002115;28;20188;-61
2021/03/10 00:05:08;;;;;;;13.43;8.97;;;3.50;99.90;;;;;;4978202;28;20200;-56
2021/03/10 00:07:34;;;;;;;12.90;9.03;;;3.50;99.90;;;;;;4994421;28;20177;-54
2021/03/10 00:09:59;;;;;;;17.77;9.33;;;3.50;99.90;;;;;;5003616;28;20176;-53
2021/03/10 00:12:25;;;;;;;15.17;9.37;;;3.50;99.90;;;;;;5000752;28;20192;-58
2021/03/10 00:14:51;;;;;;;13.53;9.53;;;3.50;99.90;;;;;;5003166;28;21038;-58
2021/03/10 00:17:16;;;;;;;14.20;9.03;;;3.50;99.90;;;;;;5003312;28;20692;-58
2021/03/10 00:19:42;;;;;;;11.90;8.27;;;3.50;99.90;;;;;;4985072;28;20771;-58
2021/03/10 00:22:08;;;;;;;13.60;8.57;;;3.50;99.90;;;;;;5000083;28;20192;-55
2021/03/10 00:24:34;;;;;;;13.80;8.33;;;3.50;99.90;;;;;;4995209;28;20276;-57
2021/03/10 00:26:59;;;;;;;13.77;8.67;;;3.50;99.90;;;;;;5004184;28;20212;-57
2021/03/10 00:29:25;;;;;;;12.30;8.50;;;3.50;99.90;;;;;;5001175;28;20188;-57
2021/03/10 00:31:50;;;;;;;13.17;8.73;;;3.50;99.90;;;;;;5002782;28;20196;-58
2021/03/10 00:34:16;;;;;;;15.70;8.83;;;3.50;99.90;;;;;;5018425;28;20177;-58
2021/03/10 00:36:41;;;;;;;13.33;8.97;;;3.40;99.90;;;;;;4981828;28;20204;-60
2021/03/10 00:39:07;;;;;;;12.77;9.27;;;3.40;99.90;;;;;;4996712;28;20180;-61
2021/03/10 00:41:32;;;;;;;13.13;8.80;;;3.40;99.90;;;;;;4994718;28;20196;-60
2021/03/10 00:43:58;;;;;;;11.50;8.17;;;3.40;99.90;;;;;;5004559;28;20188;-60
2021/03/10 00:46:24;;;;;;;14.70;8.50;;;3.40;99.90;;;;;;5002220;28;20386;-60
2021/03/10 00:48:49;;;;;;;14.37;8.77;;;3.40;99.90;;;;;;5002698;28;20168;-60
2021/03/10 00:51:15;;;;;;;14.33;8.97;;;3.40;99.90;;;;;;4989820;28;20708;-59
2021/03/10 00:53:41;;;;;;;13.77;8.90;;;3.40;99.90;;;;;;5000512;28;20897;-60
2021/03/10 00:56:08;;;;;;;12.23;8.70;;;3.40;99.90;;;;;;4990360;28;20693;-60
2021/03/10 00:58:33;;;;;;;14.63;9.40;;;3.40;99.90;;;;;;4999469;28;20369;-50
2021/03/10 01:00:59;;;;;;;12.70;7.73;;;3.40;99.90;;;;;;5002180;28;20695;-50
2021/03/10 01:03:24;;;;;;;12.70;9.10;;;3.40;99.90;;;;;;5001170;28;20208;-61
2021/03/10 01:05:50;;;;;;;11.13;8.43;;;3.40;99.90;;;;;;4986681;28;20227;-58
2021/03/10 01:08:15;;;;;;;11.77;8.10;;;3.40;99.90;;;;;;5002293;28;20211;-59
2021/03/10 01:10:41;;;;;;;10.73;8.10;;;3.40;99.90;;;;;;4979219;28;20223;-61
2021/03/10 01:13:07;;;;;;;12.83;8.33;;;3.30;99.90;;;;;;5004369;28;20184;-60
2021/03/10 01:15:33;;;;;;;11.13;8.47;;;3.40;99.90;;;;;;4999773;28;20189;-60
2021/03/10 01:17:59;;;;;;;13.23;8.50;;;3.30;99.90;;;;;;5003817;28;20180;-57
2021/03/10 01:20:26;;;;;;;11.20;7.93;;;3.30;99.90;;;;;;5000296;28;20181;-62
2021/03/10 01:22:51;;;;;;;17.07;8.93;;;3.30;99.90;;;;;;4986569;28;20249;-57
2021/03/10 01:25:18;;;;;;;12.47;8.50;;;3.30;99.90;;;;;;4992906;28;20275;-61
2021/03/10 01:27:44;;;;;;;10.77;8.00;;;3.30;99.90;;;;;;4986117;28;20189;-63
2021/03/10 01:30:11;;;;;;;16.03;8.67;;;3.30;99.90;;;;;;5003092;28;20255;-55
2021/03/10 01:32:38;;;;;;;14.30;9.20;;;3.30;99.90;;;;;;4998981;28;20236;-53
2021/03/10 01:35:05;;;;;;;12.97;9.00;;;3.30;99.90;;;;;;5003067;28;20173;-56
2021/03/10 01:37:31;;;;;;;13.17;9.17;;;3.30;99.90;;;;;;4986461;28;20180;-63
2021/03/10 01:39:56;;;;;;;13.67;9.50;;;3.30;99.90;;;;;;5000982;28;20188;-52
2021/03/10 01:42:23;;;;;;;13.57;9.53;;;3.30;99.90;;;;;;4995063;28;20287;-61
2021/03/10 01:44:48;;;;;;;14.77;8.33;;;3.30;99.90;;;;;;5001254;28;20184;-51
2021/03/10 01:47:15;;;;;;;12.53;8.63;;;3.30;99.90;;;;;;5002502;28;20255;-62
2021/03/10 01:49:41;;;;;;;13.90;8.90;;;3.20;99.90;;;;;;4999617;28;20173;-61
2021/03/10 01:52:08;;;;;;;12.33;8.27;;;3.20;99.90;;;;;;5003660;28;20668;-60
2021/03/10 01:54:34;;;;;;;16.13;9.40;;;3.20;99.90;;;;;;4985105;28;20272;-60
2021/03/10 01:57:01;;;;;;;11.30;8.63;;;3.20;99.90;;;;;;4996733;28;20201;-61
2021/03/10 01:59:26;;;;;;;12.20;8.33;;;3.20;99.90;;;;;;4992798;28;20184;-60
2021/03/10 02:01:52;;;;;;;13.27;8.73;;;3.20;99.90;;;;;;5001991;28;20557;-61
2021/03/10 02:04:18;;;;;;;14.03;9.20;;;3.10;99.90;;;;;;4993305;28;20281;-59
2021/03/10 02:07:08;;;;;;;13.17;8.73;;;3.20;99.90;;;;;;4986602;28;20774;-59
2021/03/10 02:09:52;;;;;;;12.03;8.47;;;3.20;99.90;;;;;;4982176;28;20259;-58
2021/03/10 02:12:42;;;;;;;16.50;8.83;;;3.20;99.90;;;;;;4989095;28;20267;-59
2021/03/10 02:15:27;;;;;;;13.17;8.13;;;3.20;99.90;;;;;;4999077;28;20662;-59
2021/03/10 02:17:57;;;;;;;11.97;7.73;;;3.10;99.90;;;;;;5007813;28;20195;-60
2021/03/10 02:20:31;;;;;;;10.90;8.23;;;3.10;99.90;;;;;;5003316;28;20238;-55
2021/03/10 02:23:25;;;;;;;14.30;8.27;;;3.10;99.90;;;;;;4989723;28;20172;-62
2021/03/10 02:26:23;;;;;;;13.70;8.70;;;3.10;99.90;;;;;;4982997;28;20590;-56
2021/03/10 02:28:51;;;;;;;12.10;8.23;;;3.10;99.90;;;;;;4999856;28;20195;-53
2021/03/10 02:31:17;;;;;;;11.40;7.93;;;3.10;99.90;;;;;;4997215;28;20203;-55
2021/03/10 02:33:45;;;;;;;16.50;10.00;;;3.10;99.90;;;;;;5006326;28;20525;-53
2021/03/10 02:36:12;;;;;;;13.50;8.97;;;3.10;99.90;;;;;;5002428;28;20203;-60
2021/03/10 02:38:48;;;;;;;12.47;7.97;;;3.00;99.90;;;;;;5008661;28;20188;-58
2021/03/10 02:41:15;;;;;;;11.90;7.97;;;3.00;99.90;;;;;;4990573;28;20263;-53
2021/03/10 02:43:42;;;;;;;14.03;8.83;;;3.00;99.90;;;;;;5008989;28;20711;-59
2021/03/10 02:46:08;;;;;;;13.87;8.87;;;2.90;99.90;;;;;;5000686;28;20647;-60
2021/03/10 02:48:35;;;;;;;15.70;8.87;;;2.90;99.90;;;;;;5008208;28;20271;-58
2021/03/10 02:51:02;;;;;;;15.87;9.83;;;2.90;99.90;;;;;;5006450;28;20203;-60
2021/03/10 02:53:30;;;;;;;12.20;8.67;;;2.90;99.90;;;;;;4987964;28;20421;-57
2021/03/10 02:55:55;;;;;;;13.97;8.83;;;2.90;99.90;;;;;;4974966;28;20220;-58
2021/03/10 02:58:21;;;;;;;11.33;8.07;;;2.90;99.90;;;;;;5001603;28;20183;-56
2021/03/10 03:00:47;;;;;;;12.33;8.10;;;2.90;99.90;;;;;;4986310;28;20277;-56
2021/03/10 03:03:12;;;;;;;13.53;8.20;;;2.90;99.90;;;;;;4997558;28;20211;-60
2021/03/10 03:05:38;;;;;;;14.97;7.80;;;2.90;99.90;;;;;;5008342;28;20353;-59
2021/03/10 03:08:05;;;;;;;13.93;8.40;;;3.00;99.90;;;;;;5006069;28;20180;-61
2021/03/10 03:10:41;;;;;;;14.30;9.27;;;3.00;99.90;;;;;;4992393;28;20196;-57
2021/03/10 03:13:13;;;;;;;12.63;7.80;;;3.00;99.90;;;;;;4997142;28;20170;-59
2021/03/10 03:15:39;;;;;;;11.63;7.60;;;2.90;99.90;;;;;;4986266;28;20219;-56
2021/03/10 03:18:05;;;;;;;12.37;8.70;;;2.90;99.90;;;;;;4996142;28;20199;-58
2021/03/10 03:20:32;;;;;;;11.63;8.73;;;2.90;99.90;;;;;;5003899;28;20376;-59
2021/03/10 03:22:59;;;;;;;12.07;7.53;;;2.90;99.90;;;;;;4989771;28;20179;-59
2021/03/10 03:25:27;;;;;;;13.43;8.27;;;2.90;99.90;;;;;;4983002;28;20194;-59
2021/03/10 03:27:59;;;;;;;12.93;8.10;;;2.90;99.90;;;;;;4987536;28;20969;-57
2021/03/10 03:30:28;;;;;;;12.47;8.20;;;2.90;99.90;;;;;;4994139;28;20176;-59
2021/03/10 03:32:55;;;;;;;11.17;7.57;;;2.90;99.90;;;;;;4999100;28;20249;-58
2021/03/10 03:35:22;;;;;;;10.47;7.57;;;2.90;99.90;;;;;;4996141;28;20204;-59
2021/03/10 03:37:51;;;;;;;14.70;7.43;;;2.90;99.90;;;;;;5005836;28;20183;-59
2021/03/10 03:40:19;;;;;;;11.67;8.47;;;2.90;99.90;;;;;;5003219;28;20247;-58
2021/03/10 03:42:45;;;;;;;11.27;7.23;;;2.90;99.90;;;;;;4988949;28;20198;-58
2021/03/10 03:45:14;;;;;;;10.83;7.53;;;2.90;99.90;;;;;;4999777;28;20724;-60
2021/03/10 03:47:40;;;;;;;13.10;7.47;;;2.90;99.90;;;;;;4996663;28;20204;-59
2021/03/10 03:50:06;;;;;;;10.17;6.93;;;2.90;99.90;;;;;;4997152;28;20192;-59
2021/03/10 03:52:32;;;;;;;11.43;7.10;;;2.80;99.90;;;;;;4995212;28;20272;-59
2021/03/10 03:54:57;;;;;;;13.10;7.43;;;2.80;99.90;;;;;;4986515;28;20260;-61
2021/03/10 03:57:23;;;;;;;10.00;7.03;;;2.80;99.90;;;;;;4973961;28;20673;-61
2021/03/10 03:59:48;;;;;;;9.87;6.03;;;2.70;99.90;;;;;;5005439;28;20171;-62
2021/03/10 04:02:14;;;;;;;10.17;6.43;;;2.60;99.90;;;;;;4989813;28;20372;-54
2021/03/10 04:04:39;;;;;;;8.00;5.93;;;2.60;99.90;;;;;;5004787;28;20195;-52
2021/03/10 04:07:05;;;;;;;8.47;6.40;;;2.50;99.90;;;;;;4994955;28;20223;-62
2021/03/10 04:09:30;;;;;;;9.23;6.33;;;2.50;99.90;;;;;;5002762;28;20228;-56
2021/03/10 04:11:56;;;;;;;10.37;6.30;;;2.50;99.90;;;;;;5003836;28;20218;-61
2021/03/10 04:14:21;;;;;;;8.17;5.90;;;2.40;99.90;;;;;;4979425;28;20886;-57
2021/03/10 04:16:47;;;;;;;7.07;6.00;;;2.40;99.90;;;;;;4994422;28;20205;-59
2021/03/10 04:19:12;;;;;;;7.30;5.93;;;2.40;99.90;;;;;;4994968;28;20820;-59
2021/03/10 04:21:38;;;;;;;9.13;5.93;;;2.40;99.90;;;;;;4998832;28;20200;-59
2021/03/10 04:24:05;;;;;;;9.17;6.50;;;2.30;99.90;;;;;;5002091;28;20196;-62
2021/03/10 04:26:31;;;;;;;8.47;6.20;;;2.20;99.90;;;;;;5002434;28;20183;-56
2021/03/10 04:28:56;;;;;;;8.47;6.10;;;2.20;99.90;;;;;;4999281;28;20298;-62
2021/03/10 04:31:22;;;;;;;9.03;5.83;;;2.10;99.90;;;;;;4988695;28;20218;-57
2021/03/10 04:33:48;;;;;;;10.30;6.63;;;2.10;99.90;;;;;;4992969;28;20187;-57
2021/03/10 04:36:13;;;;;;;8.80;6.40;;;2.10;99.90;;;;;;5000385;28;20792;-59
2021/03/10 04:38:39;;;;;;;10.30;6.73;;;2.00;99.90;;;;;;4988441;28;20196;-60
2021/03/10 04:41:04;;;;;;;9.87;6.07;;;2.00;99.90;;;;;;4985264;28;20191;-61
2021/03/10 04:43:30;;;;;;;8.23;5.50;;;2.00;99.90;;;;;;4984882;28;20177;-61
2021/03/10 04:45:56;;;;;;;7.93;5.63;;;2.00;99.90;;;;;;4980321;28;20224;-60
2021/03/10 04:48:22;;;;;;;8.13;6.20;;;1.90;99.90;;;;;;4989688;28;20264;-62
2021/03/10 04:50:47;;;;;;;9.83;6.60;;;1.90;99.90;;;;;;4995801;28;20506;-61
2021/03/10 04:53:13;;;;;;;9.23;6.13;;;1.80;99.90;;;;;;4979593;28;20191;-61
2021/03/10 04:55:39;;;;;;;8.57;6.40;;;1.80;99.90;;;;;;5004552;28;20199;-60
2021/03/10 04:58:05;;;;;;;9.83;5.87;;;1.80;99.90;;;;;;5001841;28;20183;-58
2021/03/10 05:00:30;;;;;;;7.33;5.43;;;1.80;99.90;;;;;;4985106;28;20188;-61
2021/03/10 05:02:56;;;;;;;8.87;5.80;;;1.70;99.90;;;;;;4997659;28;20242;-59
2021/03/10 05:05:21;;;;;;;6.77;5.17;;;1.70;99.90;;;;;;4987716;28;20215;-62
2021/03/10 05:07:47;;;;;;;6.53;5.30;;;1.60;99.90;;;;;;5004207;28;20176;-61
2021/03/10 05:10:13;;;;;;;9.90;6.20;;;1.60;99.90;;;;;;4992866;28;20934;-59
2021/03/10 05:12:39;;;;;;;8.93;5.93;;;1.50;99.90;;;;;;5004324;28;20217;-60
2021/03/10 05:15:06;;;;;;;9.50;5.67;;;1.40;99.90;;;;;;5001836;28;20184;-59
2021/03/10 05:17:33;;;;;;;8.50;6.10;;;1.40;99.90;;;;;;4989127;28;20191;-61
2021/03/10 05:19:58;;;;;;;7.00;5.07;;;1.30;99.90;;;;;;4995881;28;20648;-59
2021/03/10 05:22:25;;;;;;;8.40;5.23;;;1.20;99.90;;;;;;4996959;28;20340;-61
2021/03/10 05:24:50;;;;;;;7.93;5.83;;;1.20;99.90;;;;;;5004711;28;20792;-61
2021/03/10 05:27:16;;;;;;;8.67;5.67;;;1.30;99.90;;;;;;4993248;28;20217;-62
2021/03/10 05:29:42;;;;;;;7.27;4.83;;;1.20;99.90;;;;;;5003765;28;20777;-61
2021/03/10 05:32:07;;;;;;;9.03;5.40;;;1.20;99.90;;;;;;4989658;28;20591;-59
2021/03/10 05:34:33;;;;;;;7.73;4.63;;;1.20;99.90;;;;;;4992239;28;20183;-60
2021/03/10 05:36:59;;;;;;;6.93;5.13;;;1.10;99.90;;;;;;4990652;28;20305;-58
2021/03/10 05:39:24;;;;;;;10.03;5.70;;;1.10;99.90;;;;;;5001058;28;20258;-61
2021/03/10 05:41:50;;;;;;;7.97;4.93;;;1.00;99.90;;;;;;4997385;28;20245;-61
2021/03/10 05:44:16;;;;;;;6.37;5.00;;;1.00;99.90;;;;;;5000016;28;20791;-61
2021/03/10 05:46:42;;;;;;;6.00;4.43;;;0.90;99.90;;;;;;5003816;28;20227;-61
2021/03/10 05:49:08;;;;;;;7.47;4.83;;;0.90;99.90;;;;;;4978873;28;20198;-59
2021/03/10 05:51:35;;;;;;;6.43;4.13;;;0.90;99.90;;;;;;4991027;28;20202;-61
2021/03/10 05:54:02;;;;;;;9.03;5.10;;;0.90;99.90;;;;;;5002105;28;20588;-59
2021/03/10 05:56:28;;;;;;;6.60;4.80;;;0.90;99.90;;;;;;5000242;28;20209;-61
2021/03/10 05:58:57;;;;;;;5.97;4.70;;;0.90;99.90;;;;;;4996702;28;20197;-59
2021/03/10 06:01:23;;;;;;;7.07;4.70;;;0.90;99.90;;;;;;5000959;28;20944;-61
2021/03/10 06:03:57;;;;;;;6.87;4.80;;;0.90;99.90;;;;;;4989115;28;20201;-61
2021/03/10 06:06:24;;;;;;;6.63;5.20;;;0.90;99.90;;;;;;4999082;28;20910;-61
2021/03/10 06:08:50;;;;;;;6.40;5.10;;;0.90;99.90;;;;;;4993702;28;20307;-57
2021/03/10 06:11:26;;;;;;;7.33;5.17;;;0.90;99.90;;;;;;4998765;28;20189;-56
2021/03/10 06:13:54;;;;;;;6.87;4.33;;;0.90;99.90;;;;;;4996186;28;20193;-56
2021/03/10 06:16:25;;;;;;;6.67;4.40;;;0.90;99.90;;;;;;4998874;28;20263;-58
2021/03/10 06:19:05;;;;;;;6.30;4.90;;;0.90;99.90;;;;;;4988398;28;20204;-55
2021/03/10 06:21:31;;;;;;;7.40;4.57;;;0.90;99.90;;;;;;4998439;28;20334;-60
2021/03/10 06:23:58;;;;;;;6.63;4.43;;;0.90;99.90;;;;;;4985292;28;20280;-60
2021/03/10 06:26:29;;;;;;;5.90;4.20;;;1.00;99.90;;;;;;4999844;28;20301;-55
2021/03/10 06:28:56;;;;;;;7.20;5.07;;;1.00;99.90;;;;;;4994925;28;20195;-60
2021/03/10 06:31:31;;;;;;;6.80;4.93;;;1.00;99.90;;;;;;4999612;28;20206;-57
2021/03/10 06:34:11;;;;;;;7.40;4.57;;;1.10;99.90;;;;;;4998152;28;20186;-62
2021/03/10 06:36:39;;;;;;;7.97;4.70;;;1.20;99.90;;;;;;4993481;28;20681;-56
2021/03/10 06:39:07;;;;;;;6.53;4.33;;;1.20;99.90;;;;;;4983528;28;20541;-59
2021/03/10 06:41:41;;;;;;;6.87;4.70;;;1.20;99.90;;;;;;4993513;28;20210;-62
2021/03/10 06:44:18;;;;;;;6.17;4.77;;;1.30;99.90;;;;;;4995190;28;20648;-55
2021/03/10 06:47:04;;;;;;;7.97;4.90;;;1.30;99.90;;;;;;4979626;28;20230;-56
2021/03/10 06:49:31;;;;;;;6.57;4.07;;;1.40;99.90;;;;;;4987613;28;20705;-62
2021/03/10 06:52:07;;;;;;;7.10;4.43;;;1.50;99.90;;;;;;5000115;28;20292;-57
2021/03/10 06:54:33;;;;;;;10.20;4.37;;;1.50;99.90;;;;;;4991639;28;20233;-62
2021/03/10 06:57:02;;;;;;;8.53;4.70;;;1.60;99.90;;;;;;5005251;28;20563;-56
2021/03/10 06:59:42;;;;;;;7.40;4.70;;;1.60;99.90;;;;;;4998689;28;20178;-61
2021/03/10 07:02:22;;;;;;;6.67;4.50;;;1.70;99.90;;;;;;5007453;28;20182;-59
2021/03/10 07:04:52;;;;;;;7.60;4.60;;;1.70;99.90;;;;;;4999189;28;20205;-59
2021/03/10 07:07:18;;;;;;;7.67;4.43;;;1.80;99.90;;;;;;4992983;28;20214;-60
2021/03/10 07:09:45;;;;;;;7.93;5.10;;;1.80;99.90;;;;;;4994252;28;20197;-59
2021/03/10 07:12:14;;;;;;;6.80;4.40;;;1.90;99.90;;;;;;5007528;28;20297;-58
2021/03/10 07:14:40;;;;;;;7.43;4.57;;;2.00;99.90;;;;;;4993997;28;21475;-58
2021/03/10 07:17:13;;;;;;;6.40;4.17;;;2.00;99.90;;;;;;4997965;28;20231;-57
2021/03/10 07:19:39;;;;;;;7.00;4.67;;;2.10;99.90;;;;;;4990262;28;20206;-58
2021/03/10 07:22:12;;;;;;;8.83;4.80;;;2.10;99.90;;;;;;4986801;28;20185;-58
2021/03/10 07:24:49;;;;;;;7.13;5.13;;;2.20;99.90;;;;;;4993819;28;20985;-57
2021/03/10 07:27:17;;;;;;;9.37;4.90;;;2.20;99.90;;;;;;4995660;28;20630;-57
2021/03/10 07:29:43;;;;;;;8.87;4.57;;;2.30;99.90;;;;;;5003130;28;20171;-57
2021/03/10 07:32:09;;;;;;;7.33;5.03;;;2.30;99.90;;;;;;4997438;28;20227;-59
2021/03/10 07:34:37;;;;;;;6.30;5.03;;;2.40;99.90;;;;;;4993715;28;20176;-58
2021/03/10 07:37:15;;;;;;;9.73;5.30;;;2.40;99.90;;;;;;4982537;28;20378;-58
2021/03/10 07:39:41;;;;;;;7.67;4.90;;;2.50;99.90;;;;;;4994266;28;20265;-56
2021/03/10 07:42:15;;;;;;;7.27;4.50;;;2.50;99.90;;;;;;4992724;28;20794;-58
2021/03/10 07:44:55;;;;;;;7.47;5.40;;;2.60;99.90;;;;;;5002075;28;20193;-58
2021/03/10 07:47:20;;;;;;;11.63;5.53;;;2.60;99.90;;;;;;4981437;28;20273;-59
2021/03/10 07:49:59;;;;;;;14.90;5.93;;;2.70;99.90;;;;;;4989166;28;20191;-59
2021/03/10 07:52:27;;;;;;;7.40;5.30;;;2.70;99.90;;;;;;4997139;28;20854;-59
2021/03/10 07:54:58;;;;;;;7.80;5.10;;;2.80;99.90;;;;;;4976966;28;20176;-58
2021/03/10 07:57:23;;;;;;;7.93;5.90;;;2.80;99.90;;;;;;4996629;28;20194;-59
2021/03/10 07:59:55;;;;;;;11.10;5.93;;;2.90;99.90;;;;;;5002864;28;20266;-59
2021/03/10 08:02:21;;;;;;;9.70;6.07;;;3.00;99.90;;;;;;4989084;28;20211;-58
2021/03/10 08:05:01;;;;;;;9.40;6.27;;;3.00;99.90;;;;;;5003095;28;20183;-58
2021/03/10 08:07:30;;;;;;;9.70;6.57;;;3.10;99.90;;;;;;4998942;28;20278;-57
2021/03/10 08:09:56;;;;;;;11.53;6.00;;;3.10;99.90;;;;;;4984571;28;20195;-58
2021/03/10 08:12:33;;;;;;;10.20;6.43;;;3.20;99.90;;;;;;4992314;28;20208;-56
2021/03/10 08:14:59;;;;;;;8.73;5.73;;;3.20;99.90;;;;;;4993923;28;20191;-58
2021/03/10 08:17:29;;;;;;;10.77;6.57;;;3.30;99.90;;;;;;4998403;28;20657;-58
2021/03/10 08:20:01;;;;;;;8.10;6.00;;;3.30;99.90;;;;;;4997587;28;20322;-60
2021/03/10 08:22:28;;;;;;;9.90;6.70;;;3.30;99.90;;;;;;5000515;28;20192;-58
2021/03/10 08:24:55;;;;;;;13.37;7.50;;;3.30;99.90;;;;;;4994065;28;20218;-60
2021/03/10 08:27:32;;;;;;;10.77;6.50;;;3.40;99.90;;;;;;4996831;28;20665;-59
2021/03/10 08:29:59;;;;;;;10.60;7.90;;;3.40;99.90;;;;;;4996685;28;20215;-59
2021/03/10 08:32:28;;;;;;;11.90;6.83;;;3.40;99.90;;;;;;4995401;28;20335;-59
2021/03/10 08:35:00;;;;;;;9.80;6.53;;;3.50;99.90;;;;;;4988094;28;20899;-55
2021/03/10 08:37:26;;;;;;;10.37;7.90;;;3.60;99.90;;;;;;4993578;28;20242;-55
2021/03/10 08:39:52;;;;;;;10.90;8.00;;;3.60;99.90;;;;;;4991763;28;20510;-55
2021/03/10 08:42:18;;;;;;;12.70;8.07;;;3.60;99.90;;;;;;4990307;28;20640;-60
2021/03/10 08:44:45;;;;;;;11.90;8.33;;;3.70;99.90;;;;;;4997971;28;20373;-58
2021/03/10 08:47:14;;;;;;;13.03;9.43;;;3.80;99.90;;;;;;5005983;28;20200;-59
2021/03/10 08:49:49;;;;;;;12.60;8.83;;;3.90;99.90;;;;;;5000895;28;20378;-56
2021/03/10 08:52:16;;;;;;;12.70;8.33;;;3.90;99.90;;;;;;4983086;28;20282;-59
2021/03/10 08:54:50;;;;;;;16.20;9.53;;;4.00;99.90;;;;;;5017287;28;20801;-59
2021/03/10 08:57:16;;;;;;;16.40;10.03;;;4.10;99.90;;;;;;4985756;28;20216;-59
2021/03/10 08:59:42;;;;;;;13.13;8.90;;;4.20;99.90;;;;;;4999941;28;20219;-58
2021/03/10 09:02:10;;;;;;;15.77;9.73;;;4.20;99.90;;;;;;4999405;28;20182;-59
2021/03/10 09:04:36;;;;;;;20.23;10.33;;;4.30;99.90;;;;;;4995871;28;20197;-59
2021/03/10 09:07:02;;;;;;;15.43;9.63;;;4.40;99.90;;;;;;4986343;28;20206;-59
2021/03/10 09:09:33;;;;;;;14.90;9.50;;;4.30;99.90;;;;;;4994651;28;20207;-58
2021/03/10 09:11:59;;;;;;;18.50;10.73;;;4.30;99.90;;;;;;4997938;28;20885;-59
2021/03/10 09:14:36;;;;;;;13.30;9.60;;;4.40;99.90;;;;;;4975791;28;20188;-59
2021/03/10 09:17:05;;;;;;;16.77;9.73;;;4.50;99.90;;;;;;4996436;28;20693;-59
2021/03/10 09:19:38;;;;;;;15.30;10.30;;;4.60;99.90;;;;;;4985636;28;20263;-59
2021/03/10 09:22:19;;;;;;;18.60;12.23;;;4.60;99.90;;;;;;5001542;28;20187;-53
2021/03/10 09:24:56;;;;;;;20.30;12.30;;;4.60;99.90;;;;;;4990290;28;20188;-58
2021/03/10 09:27:28;;;;;;;20.10;13.17;;;4.60;99.90;;;;;;4990918;28;20204;-59
2021/03/10 09:30:00;;;;;;;21.57;12.23;;;4.70;99.90;;;;;;4976744;28;20184;-59
2021/03/10 09:32:37;;;;;;;21.50;12.73;;;4.80;99.90;;;;;;4993072;28;20227;-59
2021/03/10 09:35:11;;;;;;;20.30;13.10;;;4.80;99.90;;;;;;4991375;28;20242;-58
2021/03/10 09:37:50;;;;;;;23.57;12.50;;;4.80;99.90;;;;;;4990265;28;20281;-58
2021/03/10 09:40:18;;;;;;;24.77;14.20;;;4.80;99.90;;;;;;4993336;28;20180;-61
2021/03/10 09:43:25;;;;;;;22.80;11.80;;;4.90;99.90;;;;;;4990887;28;20186;-60
2021/03/10 09:45:58;;;;;;;19.83;12.27;;;5.00;99.90;;;;;;4990671;28;20575;-59
2021/03/10 09:48:30;;;;;;;18.33;11.20;;;5.10;99.90;;;;;;4993836;28;20181;-60
2021/03/10 09:51:08;;;;;;;20.07;12.37;;;5.10;99.90;;;;;;4987559;28;20209;-61
2021/03/10 09:53:48;;;;;;;24.00;13.87;;;5.10;99.90;;;;;;5003374;28;20180;-60
2021/03/10 09:56:18;;;;;;;21.50;12.80;;;5.20;99.90;;;;;;4996471;28;20808;-59
2021/03/10 09:58:55;;;;;;;24.07;13.10;;;5.30;99.90;;;;;;5002911;28;20551;-60
2021/03/10 10:01:28;;;;;;;19.03;11.57;;;5.30;99.90;;;;;;4988026;28;20295;-57
2021/03/10 10:03:56;;;;;;;23.60;13.23;;;5.40;99.90;;;;;;4995291;28;20184;-59
2021/03/10 10:06:25;;;;;;;18.87;12.50;;;5.50;99.90;;;;;;4986029;28;20205;-59
2021/03/10 10:08:53;;;;;;;21.73;12.73;;;5.50;99.90;;;;;;4990528;28;20177;-60
2021/03/10 10:11:22;;;;;;;19.50;12.07;;;5.50;99.90;;;;;;4998250;28;20212;-59
2021/03/10 10:13:50;;;;;;;21.63;12.90;;;5.50;99.90;;;;;;4990281;28;20617;-60
2021/03/10 10:16:17;;;;;;;24.27;14.13;;;5.60;99.90;;;;;;5011910;28;20294;-57
2021/03/10 10:18:44;;;;;;;25.70;14.33;;;5.60;99.90;;;;;;4997813;28;20650;-59
2021/03/10 10:21:11;;;;;;;27.67;15.07;;;5.50;99.90;;;;;;4997062;28;20185;-58
2021/03/10 10:23:37;;;;;;;21.30;12.27;;;5.60;99.90;;;;;;5020790;28;20189;-58
2021/03/10 10:26:09;;;;;;;20.47;12.33;;;5.60;99.90;;;;;;4998128;28;20242;-59
2021/03/10 10:28:37;;;;;;;19.67;13.03;;;5.60;99.90;;;;;;4998398;28;20255;-60
2021/03/10 10:31:04;;;;;;;22.17;12.10;;;5.60;99.90;;;;;;4991894;28;20209;-58
2021/03/10 10:33:33;;;;;;;19.80;12.47;;;5.70;99.90;;;;;;5008532;28;20213;-59
2021/03/10 10:35:59;;;;;;;21.47;12.80;;;5.80;99.90;;;;;;4994530;28;20201;-58
2021/03/10 10:38:24;;;;;;;20.57;12.83;;;5.90;99.90;;;;;;4999064;28;20169;-57
2021/03/10 10:40:51;;;;;;;20.27;12.77;;;6.00;99.90;;;;;;5003107;28;20260;-58
2021/03/10 10:43:19;;;;;;;20.97;11.90;;;6.00;99.90;;;;;;4992264;28;20176;-57
2021/03/10 10:45:48;;;;;;;21.27;12.63;;;6.10;99.90;;;;;;4985931;28;20205;-55
2021/03/10 10:48:16;;;;;;;20.03;12.20;;;6.10;99.90;;;;;;4983475;28;20188;-57
2021/03/10 10:50:53;;;;;;;20.23;12.80;;;6.20;99.90;;;;;;5010901;28;20997;-55
2021/03/10 10:53:21;;;;;;;20.87;13.40;;;6.20;99.90;;;;;;4987962;28;20259;-57
2021/03/10 10:55:47;;;;;;;22.83;13.30;;;6.20;99.90;;;;;;4995749;28;20947;-58
2021/03/10 10:58:13;;;;;;;22.47;12.90;;;6.20;99.90;;;;;;4997439;28;20247;-57
2021/03/10 11:00:39;;;;;;;19.93;12.80;;;6.30;99.90;;;;;;4996733;28;20188;-56
2021/03/10 11:03:09;;;;;;;22.77;13.37;;;6.30;99.90;;;;;;4982564;28;20280;-61
2021/03/10 11:05:44;;;;;;;21.27;13.23;;;6.30;99.90;;;;;;5002858;28;20200;-59
2021/03/10 11:08:11;;;;;;;21.57;12.60;;;6.40;99.90;;;;;;4992707;28;20264;-57
2021/03/10 11:10:38;;;;;;;20.93;14.53;;;6.40;99.90;;;;;;4985702;28;20191;-58
2021/03/10 11:13:05;;;;;;;23.93;14.23;;;6.30;99.90;;;;;;5010286;28;20585;-61
2021/03/10 11:15:44;;;;;;;22.87;14.77;;;6.40;99.90;;;;;;5007666;28;20215;-56
2021/03/10 11:18:28;;;;;;;23.77;16.07;;;6.50;99.90;;;;;;4981688;28;22688;-58
2021/03/10 11:20:55;;;;;;;23.57;15.27;;;6.60;99.90;;;;;;4998854;28;20254;-58
2021/03/10 11:23:24;;;;;;;25.97;16.43;;;6.60;99.90;;;;;;5007723;28;20988;-58
2021/03/10 11:25:50;;;;;;;22.97;15.23;;;6.70;99.90;;;;;;5003340;28;20336;-50
2021/03/10 11:28:16;;;;;;;27.97;17.07;;;6.70;99.90;;;;;;4992297;28;20523;-61
2021/03/10 11:30:42;;;;;;;26.30;16.60;;;6.80;99.90;;;;;;4998138;28;20707;-56
2021/03/10 11:33:10;;;;;;;28.73;16.63;;;6.70;99.90;;;;;;4993515;28;20316;-61
2021/03/10 11:35:41;;;;;;;29.43;16.90;;;6.70;99.90;;;;;;4985723;28;20206;-61
2021/03/10 11:38:07;;;;;;;24.87;15.27;;;6.70;99.90;;;;;;4987456;28;20188;-60
2021/03/10 11:40:32;;;;;;;24.93;15.63;;;6.70;99.90;;;;;;4991418;28;20189;-57
2021/03/10 11:42:58;;;;;;;28.23;16.03;;;6.70;99.90;;;;;;5002854;28;20189;-56
2021/03/10 11:45:24;;;;;;;26.73;15.17;;;6.80;99.90;;;;;;4996540;28;20216;-55
2021/03/10 11:47:49;;;;;;;27.17;15.67;;;6.80;99.90;;;;;;4989927;28;20200;-53
2021/03/10 11:50:15;;;;;;;22.90;14.20;;;6.80;99.90;;;;;;4983914;28;20627;-59
2021/03/10 11:52:42;;;;;;;24.63;14.17;;;6.90;99.90;;;;;;5007915;28;20223;-51
2021/03/10 11:55:10;;;;;;;21.53;14.27;;;6.80;99.90;;;;;;4993781;28;20192;-60
2021/03/10 11:57:36;;;;;;;25.17;14.70;;;6.80;99.90;;;;;;4998489;28;20185;-55
2021/03/10 12:00:06;;;;;;;22.33;14.50;;;6.90;99.90;;;;;;4995968;28;20232;-59
2021/03/10 12:02:38;;;;;;;20.90;12.40;;;6.90;99.90;;;;;;4996934;28;20196;-54
2021/03/10 12:05:07;;;;;;;18.27;11.80;;;7.00;99.90;;;;;;4995040;28;20226;-59
2021/03/10 12:07:33;;;;;;;20.63;12.10;;;7.00;99.90;;;;;;4988842;28;20204;-59
2021/03/10 12:09:58;;;;;;;17.93;10.53;;;7.00;99.90;;;;;;4994442;28;20193;-57
2021/03/10 12:12:24;;;;;;;17.77;10.90;;;7.20;99.90;;;;;;4980525;28;20209;-59
2021/03/10 12:15:00;;;;;;;17.43;10.73;;;7.20;99.90;;;;;;4983499;28;20184;-55
2021/03/10 12:17:25;;;;;;;16.87;11.20;;;7.20;99.90;;;;;;4990446;28;20190;-56
2021/03/10 12:19:51;;;;;;;17.70;11.23;;;7.20;99.90;;;;;;5001094;28;20185;-58
2021/03/10 12:22:16;;;;;;;19.67;11.27;;;7.20;99.90;;;;;;4980117;28;20938;-58
2021/03/10 12:24:45;;;;;;;20.70;11.90;;;7.10;99.90;;;;;;4999030;28;20199;-57
2021/03/10 12:27:11;;;;;;;25.10;12.23;;;7.20;99.90;;;;;;4990754;28;20251;-59
2021/03/10 12:29:36;;;;;;;20.10;11.93;;;7.30;99.90;;;;;;5004562;28;20853;-55
2021/03/10 12:32:03;;;;;;;17.73;11.47;;;7.20;99.90;;;;;;4999553;28;20209;-60
2021/03/10 12:34:29;;;;;;;14.53;10.43;;;7.30;99.90;;;;;;5000902;28;20242;-55
2021/03/10 12:36:54;;;;;;;18.70;10.53;;;7.50;99.90;;;;;;4998192;28;20597;-57
2021/03/10 12:39:20;;;;;;;22.80;12.93;;;7.60;99.90;;;;;;4974092;28;20193;-57
2021/03/10 12:41:46;;;;;;;18.07;11.57;;;7.60;99.90;;;;;;5004717;28;20176;-60
2021/03/10 12:44:11;;;;;;;17.30;11.60;;;7.80;99.90;;;;;;4994130;28;20189;-55
2021/03/10 12:46:37;;;;;;;22.20;11.93;;;7.80;99.90;;;;;;4991057;28;20220;-57
2021/03/10 12:49:03;;;;;;;16.97;11.63;;;7.90;99.90;;;;;;4996273;28;20660;-58
2021/03/10 12:51:28;;;;;;;17.50;10.97;;;7.90;99.90;;;;;;4999941;28;20197;-52
2021/03/10 12:53:54;;;;;;;16.63;11.23;;;8.00;99.90;;;;;;4990147;28;20192;-49